Time;durP1;ratioP1;P1;durP2;ratioP2;P2;SDS_P1;SDS_P2;PMS_P1;PMS_P2;Temp;Humidity;BMP_temperature;BMP_pressure;BME280_temperature;BME280_humidity;BME280_pressure;Samples;Min_cycle;Max_cycle;Signal;HPM_P1;HPM_P2
2022/10/17 00:00:33;;;;;;;12.68;9.77;;;19.40;92.80;;;19.33;60.44;99757.75;5065440;28;20051;-78
2022/10/17 00:03:20;;;;;;;13.13;9.23;;;19.40;92.80;;;19.29;60.61;99754.81;5053369;28;20052;-78
2022/10/17 00:05:47;;;;;;;13.88;9.80;;;19.30;92.80;;;19.32;60.93;99760.81;5062232;28;20040;-78
2022/10/17 00:08:14;;;;;;;13.63;9.45;;;19.40;93.00;;;19.33;61.04;99762.44;5080046;28;20076;-78
2022/10/17 00:10:41;;;;;;;15.25;9.60;;;19.40;93.00;;;19.33;61.16;99766.00;5058450;28;20037;-78
2022/10/17 00:13:07;;;;;;;12.63;9.38;;;19.30;93.00;;;19.34;60.48;99761.34;5060010;28;20562;-78
2022/10/17 00:15:33;;;;;;;12.88;9.75;;;19.40;92.90;;;19.32;60.44;99766.31;5052093;28;20055;-78
2022/10/17 00:18:00;;;;;;;11.52;9.48;;;19.40;92.80;;;19.33;60.53;99767.94;5079759;28;20052;-78
2022/10/17 00:20:26;;;;;;;12.02;9.27;;;19.40;92.80;;;19.32;60.19;99772.63;5081008;28;20406;-78
2022/10/17 00:22:52;;;;;;;11.00;9.43;;;19.40;92.80;;;19.33;60.92;99777.00;5062819;28;20041;-78
2022/10/17 00:25:18;;;;;;;16.45;9.27;;;19.40;92.90;;;19.34;60.71;99769.59;5045229;28;20048;-78
2022/10/17 00:27:44;;;;;;;15.40;9.02;;;19.40;92.90;;;19.33;60.71;99767.94;5075552;28;20123;-78
2022/10/17 00:30:12;;;;;;;14.50;9.18;;;19.40;92.80;;;19.35;60.50;99771.19;5083634;28;20076;-78
2022/10/17 00:32:39;;;;;;;10.93;8.15;;;19.40;92.80;;;19.32;60.48;99772.63;5083679;28;20047;-78
2022/10/17 00:35:05;;;;;;;12.32;8.77;;;19.40;92.70;;;19.36;60.35;99767.31;5045639;28;20127;-78
2022/10/17 00:37:32;;;;;;;11.70;9.52;;;19.40;92.70;;;19.38;60.32;99771.38;5061186;28;20144;-78
2022/10/17 00:39:58;;;;;;;12.95;9.40;;;19.40;92.80;;;19.38;60.68;99771.38;5067430;28;20047;-78
2022/10/17 00:42:25;;;;;;;12.30;9.80;;;19.40;92.90;;;19.37;60.75;99766.22;5062188;28;20041;-78
2022/10/17 00:45:20;;;;;;;10.00;8.73;;;19.40;93.00;;;19.33;60.45;99762.44;5061078;28;20037;-78
2022/10/17 00:47:51;;;;;;;13.30;9.55;;;19.40;92.80;;;19.33;60.39;99768.75;5078298;28;20050;-78
2022/10/17 00:50:17;;;;;;;13.00;9.15;;;19.40;92.80;;;19.35;60.33;99766.50;5061794;28;20048;-78
2022/10/17 00:52:43;;;;;;;14.20;10.20;;;19.40;92.80;;;19.34;60.50;99764.09;5062542;28;20399;-78
2022/10/17 00:55:20;;;;;;;12.85;9.35;;;19.40;92.70;;;19.35;60.90;99765.69;5061839;28;20100;-78
2022/10/17 00:57:46;;;;;;;12.20;8.88;;;19.40;92.90;;;19.35;60.73;99761.00;5045409;28;20486;-78
2022/10/17 01:00:13;;;;;;;13.43;9.50;;;19.40;92.90;;;19.34;60.51;99769.59;5060573;28;20053;-78
2022/10/17 01:02:39;;;;;;;12.98;9.43;;;19.40;92.80;;;19.35;60.47;99771.19;5043133;28;20032;-78
2022/10/17 01:05:06;;;;;;;11.25;8.43;;;19.40;92.80;;;19.35;60.25;99765.69;5077161;28;20049;-78
2022/10/17 01:07:32;;;;;;;17.30;9.02;;;19.40;92.70;;;19.36;60.04;99761.81;5064802;28;20094;-78
2022/10/17 01:09:58;;;;;;;12.38;8.18;;;19.40;92.70;;;19.39;60.43;99761.22;5064706;28;20040;-78
2022/10/17 01:12:49;;;;;;;11.88;8.88;;;19.40;92.80;;;19.35;60.92;99765.69;5071131;28;20596;-78
2022/10/17 01:15:41;;;;;;;12.68;9.23;;;19.40;92.90;;;19.34;60.66;99766.84;5076998;28;20468;-78
2022/10/17 01:18:20;;;;;;;;;;;19.40;92.90;;;19.37;60.15;99774.47;5082133;28;20040;-78
2022/10/17 01:21:22;;;;;;;13.23;9.75;;;19.40;92.80;;;19.33;60.34;99774.25;5078623;28;19928;-78
2022/10/17 01:24:13;;;;;;;12.27;9.18;;;19.30;93.10;;;19.33;60.05;99767.94;5078554;28;20036;-78
2022/10/17 01:27:14;;;;;;;13.05;9.18;;;19.40;92.70;;;19.37;60.46;99768.97;5084754;28;20040;-77
2022/10/17 01:29:52;;;;;;;12.07;9.27;;;19.40;92.90;;;19.32;60.71;99767.13;5083789;28;20036;-78
2022/10/17 01:32:26;;;;;;;11.80;8.60;;;19.40;93.00;;;19.31;60.59;99765.53;5081078;28;20044;-77
2022/10/17 01:34:59;;;;;;;12.30;8.38;;;19.40;92.90;;;19.29;60.42;99768.56;5080395;28;20039;-77
2022/10/17 01:37:36;;;;;;;11.57;9.05;;;19.40;92.80;;;19.32;60.26;99777.31;5082041;28;20044;-77
2022/10/17 01:40:10;;;;;;;14.30;9.13;;;19.30;92.70;;;19.30;60.27;99769.38;5067915;28;20097;-78
2022/10/17 01:43:01;;;;;;;12.60;9.25;;;19.30;92.70;;;19.28;60.77;99768.84;5067207;28;20040;-77
2022/10/17 01:45:36;;;;;;;11.50;8.77;;;19.30;92.90;;;19.28;60.70;99766.94;5081691;28;20046;-78
2022/10/17 01:48:11;;;;;;;11.40;8.98;;;19.30;92.90;;;19.30;60.64;99770.19;5067234;28;20044;-78
2022/10/17 01:50:41;;;;;;;11.13;8.43;;;19.30;92.90;;;19.30;60.58;99766.63;5064709;28;20064;-78
2022/10/17 01:53:43;;;;;;;12.77;9.35;;;19.30;92.80;;;19.27;60.23;99775.50;5082159;28;20078;-78
2022/10/17 01:56:09;;;;;;;11.30;9.15;;;19.30;92.80;;;19.30;60.12;99774.88;5073030;28;20040;-78
2022/10/17 01:58:49;;;;;;;14.00;9.98;;;19.30;92.70;;;19.30;60.74;99774.88;5033800;28;20044;-78
2022/10/17 02:01:15;;;;;;;14.10;9.10;;;19.30;92.80;;;19.29;60.71;99779.56;5064627;28;20049;-78
2022/10/17 02:03:41;;;;;;;14.20;8.98;;;19.30;92.90;;;19.27;60.80;99770.81;5067840;28;20036;-77
2022/10/17 02:06:08;;;;;;;13.05;9.38;;;19.30;92.90;;;19.22;60.54;99773.66;5070097;28;20095;-78
2022/10/17 02:09:23;;;;;;;11.63;8.32;;;19.30;92.90;;;19.27;60.32;99781.81;5062236;28;20044;-78
2022/10/17 02:12:06;;;;;;;10.90;8.10;;;19.30;92.80;;;19.27;60.31;99776.31;5079272;28;20058;-78
2022/10/17 02:15:08;;;;;;;11.95;9.30;;;19.30;92.80;;;19.27;60.54;99776.31;5084432;28;20384;-78
2022/10/17 02:17:46;;;;;;;;;;;19.30;92.90;;;19.24;60.88;99779.69;5083010;28;20047;-78
2022/10/17 02:20:36;;;;;;;13.13;9.00;;;19.30;93.30;;;19.23;60.91;99763.47;5080086;28;20063;-78
2022/10/17 02:23:22;;;;;;;11.38;9.13;;;19.20;93.00;;;19.23;60.51;99767.06;5067699;28;20048;-77
2022/10/17 02:25:53;;;;;;;13.32;9.40;;;19.20;92.80;;;19.27;60.34;99779.06;5050945;28;20131;-77
2022/10/17 02:28:21;;;;;;;10.10;8.48;;;19.20;92.80;;;19.26;60.11;99774.69;5077957;28;20044;-77
2022/10/17 02:31:01;;;;;;;13.48;9.98;;;19.30;93.10;;;19.28;60.44;99769.69;5077690;28;20040;-77
2022/10/17 02:33:35;;;;;;;13.38;9.32;;;19.30;92.80;;;19.24;60.80;99768.66;5064230;28;20040;-77
2022/10/17 02:36:14;;;;;;;11.65;8.30;;;19.30;93.00;;;19.22;60.82;99762.66;5078741;28;20655;-77
2022/10/17 02:38:40;;;;;;;13.13;9.32;;;19.20;92.90;;;19.23;60.55;99772.56;5040157;28;20395;-77
2022/10/17 02:41:07;;;;;;;10.40;8.88;;;19.20;92.80;;;19.21;60.40;99772.03;5063865;28;20048;-77
2022/10/17 02:43:34;;;;;;;12.35;9.18;;;19.20;92.70;;;19.24;60.18;99767.88;5068205;28;20058;-77
2022/10/17 02:46:00;;;;;;;10.57;9.07;;;19.20;92.70;;;19.22;60.18;99775.59;5072856;28;20058;-78
2022/10/17 02:48:39;;;;;;;12.27;8.55;;;19.20;92.70;;;19.26;60.58;99776.63;5063930;28;20055;-78
2022/10/17 02:51:13;;;;;;;10.68;8.35;;;19.20;92.90;;;19.23;60.93;99775.31;5051026;28;20126;-78
2022/10/17 02:53:57;;;;;;;11.00;8.25;;;19.20;93.30;;;19.21;60.67;99777.53;5081646;28;20062;-78
2022/10/17 02:56:23;;;;;;;12.45;8.30;;;19.20;92.80;;;19.24;60.17;99781.63;5092118;28;20033;-78
2022/10/17 02:58:53;;;;;;;12.52;9.02;;;19.20;92.70;;;19.20;60.28;99781.41;5060036;28;20417;-78
2022/10/17 03:01:19;;;;;;;11.98;9.60;;;19.20;92.70;;;19.21;60.15;99787.72;5066441;28;20097;-78
2022/10/17 03:03:45;;;;;;;8.65;7.75;;;19.20;92.70;;;19.21;60.75;99783.03;5060628;28;20511;-78
2022/10/17 03:06:11;;;;;;;10.13;9.05;;;19.20;92.80;;;19.18;60.69;99786.38;5063628;28;20047;-78
2022/10/17 03:08:37;;;;;;;12.82;10.00;;;19.20;92.90;;;19.19;60.58;99787.22;5061644;28;20046;-78
2022/10/17 03:11:03;;;;;;;11.75;8.85;;;19.10;92.90;;;19.25;60.25;99791.50;5066676;28;20047;-78
2022/10/17 03:13:29;;;;;;;13.68;9.52;;;19.20;92.80;;;19.23;60.00;99793.72;5064223;28;20040;-78
2022/10/17 03:15:56;;;;;;;11.65;8.90;;;19.20;92.70;;;19.19;60.36;99790.78;5060695;28;20533;-78
2022/10/17 03:18:22;;;;;;;10.60;8.50;;;19.20;92.70;;;19.18;59.95;99800.13;5076178;28;20085;-78
2022/10/17 03:20:48;;;;;;;12.98;9.40;;;19.20;92.70;;;19.24;60.45;99795.38;5059857;28;20044;-79
2022/10/17 03:23:14;;;;;;;12.52;8.68;;;19.20;92.90;;;19.22;60.43;99800.34;5061435;28;20050;-79
2022/10/17 03:25:40;;;;;;;9.85;7.88;;;19.20;92.90;;;19.18;60.31;99799.31;5044711;28;20037;-78
2022/10/17 03:28:07;;;;;;;10.18;8.43;;;19.20;92.80;;;19.22;60.25;99803.91;5057751;28;20445;-79
2022/10/17 03:30:33;;;;;;;12.43;9.02;;;19.20;92.70;;;19.21;59.99;99815.22;5059904;28;20080;-78
2022/10/17 03:32:59;;;;;;;12.98;9.32;;;19.20;92.70;;;19.19;59.74;99807.28;5075356;28;20460;-78
2022/10/17 03:35:26;;;;;;;11.00;8.90;;;19.20;92.70;;;19.19;60.31;99817.47;5060620;28;20036;-79
2022/10/17 03:37:54;;;;;;;12.27;8.27;;;19.10;92.80;;;19.17;60.53;99812.28;5066770;28;20044;-78
2022/10/17 03:40:20;;;;;;;11.43;8.57;;;19.10;92.90;;;19.17;61.13;99804.03;5069839;28;20071;-78
2022/10/17 03:42:46;;;;;;;11.90;8.50;;;19.20;93.00;;;19.17;60.47;99804.03;5046876;28;20037;-78
2022/10/17 03:45:12;;;;;;;11.10;8.32;;;19.10;92.80;;;19.15;60.12;99819.19;5050380;28;20904;-78
2022/10/17 03:47:38;;;;;;;10.75;7.75;;;19.20;92.70;;;19.14;60.26;99825.84;5046872;28;20032;-78
2022/10/17 03:50:04;;;;;;;10.07;8.02;;;19.20;92.70;;;19.18;59.97;99827.63;5053382;28;20661;-77
2022/10/17 03:52:31;;;;;;;12.63;8.70;;;19.10;92.60;;;19.16;60.48;99821.66;5064044;28;20383;-78
2022/10/17 03:54:57;;;;;;;9.98;8.07;;;19.20;92.80;;;19.17;59.58;99817.78;5045847;28;20043;-78
2022/10/17 03:57:23;;;;;;;12.95;7.97;;;19.20;92.50;;;19.12;59.38;99823.38;5064874;28;20460;-77
2022/10/17 03:59:51;;;;;;;13.02;8.93;;;19.10;92.40;;;19.13;59.05;99835.19;5061821;28;20048;-77
2022/10/17 04:02:17;;;;;;;11.88;7.82;;;19.10;92.40;;;19.13;59.47;99835.19;5061768;28;20123;-78
2022/10/17 04:04:43;;;;;;;10.07;7.68;;;19.10;92.70;;;19.15;60.04;99831.00;5058545;28;20047;-78
2022/10/17 04:07:09;;;;;;;10.48;8.07;;;19.10;92.70;;;19.18;59.90;99826.84;5061426;28;20044;-78
2022/10/17 04:09:35;;;;;;;10.55;8.43;;;19.20;92.80;;;19.14;59.75;99834.88;5074447;28;20141;-78
2022/10/17 04:12:01;;;;;;;9.70;8.15;;;19.10;92.60;;;19.13;59.04;99835.19;5074112;28;20511;-78
2022/10/17 04:14:27;;;;;;;12.60;8.60;;;19.20;92.30;;;19.09;59.13;99835.00;5059615;28;20041;-78
2022/10/17 04:16:54;;;;;;;11.32;9.07;;;19.10;92.20;;;19.09;58.78;99829.50;5074933;28;20063;-78
2022/10/17 04:19:19;;;;;;;13.80;8.50;;;19.10;92.20;;;19.11;59.41;99834.66;5075143;28;20032;-78
2022/10/17 04:21:46;;;;;;;11.50;8.65;;;19.10;92.40;;;19.15;59.90;99841.19;5059658;28;20047;-78
2022/10/17 04:24:12;;;;;;;12.85;8.25;;;19.10;92.70;;;19.13;59.94;99841.50;5079384;28;20054;-78
2022/10/17 04:26:38;;;;;;;10.80;8.63;;;19.10;92.70;;;19.13;59.21;99847.00;5070737;28;20044;-78
2022/10/17 04:29:04;;;;;;;9.65;7.15;;;19.10;92.40;;;19.10;59.02;99844.84;5046699;28;20063;-78
2022/10/17 04:31:30;;;;;;;11.10;7.78;;;19.10;92.20;;;19.10;58.81;99855.84;5061583;28;20040;-78
2022/10/17 04:33:56;;;;;;;12.00;8.63;;;19.10;92.20;;;19.08;58.43;99863.59;5063063;28;20048;-78
2022/10/17 04:36:22;;;;;;;11.27;8.43;;;19.10;92.20;;;19.09;59.55;99857.00;5059283;28;20044;-78
2022/10/17 04:38:48;;;;;;;9.35;7.40;;;19.10;92.50;;;19.07;59.65;99859.22;5055299;28;20093;-78
2022/10/17 04:41:16;;;;;;;8.90;7.75;;;19.10;92.60;;;19.09;59.54;99857.81;5079232;28;20093;-78
2022/10/17 04:43:42;;;;;;;12.35;8.25;;;19.10;92.60;;;19.09;58.60;99857.00;5092134;28;20037;-78
2022/10/17 04:46:11;;;;;;;10.02;8.23;;;19.10;92.20;;;19.08;58.35;99861.69;5060385;28;20108;-78
2022/10/17 04:48:38;;;;;;;9.63;8.20;;;19.10;92.20;;;19.08;58.23;99856.19;5068988;28;20044;-78
2022/10/17 04:51:06;;;;;;;13.40;9.07;;;19.10;92.20;;;19.06;58.44;99852.09;5079763;28;20141;-78
2022/10/17 04:53:36;;;;;;;9.50;7.93;;;19.10;92.20;;;19.11;59.03;99862.16;5059721;28;20044;-78
2022/10/17 04:56:15;;;;;;;9.85;7.43;;;19.10;92.40;;;19.12;59.19;99853.63;5047069;28;20147;-78
2022/10/17 04:58:41;;;;;;;11.05;8.25;;;19.00;92.40;;;19.06;58.95;99857.59;5051002;28;20038;-78
2022/10/17 05:01:09;;;;;;;10.10;7.80;;;19.00;92.20;;;19.08;58.41;99861.69;5064279;28;20093;-77
2022/10/17 05:03:35;;;;;;;10.25;7.50;;;19.00;92.10;;;19.06;57.91;99852.09;5062244;28;20032;-78
2022/10/17 05:06:11;;;;;;;11.55;7.82;;;19.00;92.10;;;19.04;57.88;99846.09;5079821;28;20078;-78
2022/10/17 05:08:37;;;;;;;10.55;7.47;;;19.00;92.10;;;19.06;58.81;99838.34;5071002;28;20131;-78
2022/10/17 05:11:04;;;;;;;11.48;7.70;;;19.00;92.20;;;19.04;58.90;99838.66;5069814;28;20045;-78
2022/10/17 05:13:31;;;;;;;9.48;7.45;;;19.00;92.40;;;19.04;59.08;99848.84;5078306;28;20064;-78
2022/10/17 05:16:00;;;;;;;9.40;8.02;;;19.00;92.30;;;19.01;58.10;99857.72;5057590;28;20040;-77
2022/10/17 05:18:27;;;;;;;11.93;7.93;;;19.10;92.10;;;19.07;57.90;99864.72;5051914;28;20149;-78
2022/10/17 05:20:53;;;;;;;13.40;7.95;;;19.10;92.10;;;19.05;57.76;99855.97;5062850;28;20066;-78
2022/10/17 05:23:19;;;;;;;10.70;7.97;;;19.00;91.90;;;19.05;57.71;99859.50;5068052;28;20037;-77
2022/10/17 05:25:46;;;;;;;9.25;8.27;;;19.00;92.00;;;19.07;58.79;99859.22;5079315;28;20118;-78
2022/10/17 05:28:12;;;;;;;13.60;8.52;;;19.00;92.30;;;19.07;58.98;99862.78;5061842;28;20523;-77
2022/10/17 05:30:38;;;;;;;10.00;8.00;;;19.00;92.40;;;19.09;58.28;99868.81;5064849;28;20041;-78
2022/10/17 05:33:04;;;;;;;8.52;7.32;;;19.00;92.20;;;19.08;57.49;99869.94;5084975;28;20509;-77
2022/10/17 05:35:30;;;;;;;10.05;7.63;;;19.00;92.00;;;19.07;58.03;99878.47;5060995;28;20048;-77
2022/10/17 05:37:57;;;;;;;8.38;7.43;;;19.00;92.10;;;19.10;58.86;99880.59;5038865;28;20039;-77
2022/10/17 05:40:24;;;;;;;14.43;7.18;;;19.00;92.40;;;19.12;59.40;99883.06;5060700;28;20047;-77
2022/10/17 05:42:50;;;;;;;10.25;7.63;;;19.00;92.60;;;19.12;58.83;99883.88;5048145;28;20055;-77
2022/10/17 05:45:16;;;;;;;9.70;7.78;;;19.00;92.50;;;19.11;59.26;99890.50;5062842;28;20488;-77
2022/10/17 05:47:43;;;;;;;9.00;7.28;;;19.00;92.60;;;19.07;58.38;99883.97;5052690;28;20476;-77
2022/10/17 05:50:09;;;;;;;9.40;7.65;;;19.00;92.30;;;19.10;58.02;99891.59;5061346;28;20044;-77
2022/10/17 05:52:35;;;;;;;8.70;7.28;;;19.00;92.10;;;19.08;57.86;99902.94;5071698;28;20040;-77
2022/10/17 05:55:03;;;;;;;10.57;7.75;;;19.10;92.20;;;19.08;58.07;99899.34;5066219;28;20055;-77
2022/10/17 05:57:29;;;;;;;10.00;7.57;;;19.00;92.10;;;19.10;57.82;99910.88;5065656;28;20036;-77
2022/10/17 05:59:55;;;;;;;8.75;7.35;;;19.00;92.10;;;19.13;57.96;99912.19;5067088;28;20468;-77
2022/10/17 06:02:21;;;;;;;9.80;7.38;;;19.00;92.10;;;19.12;57.77;99911.38;5062390;28;20048;-77
2022/10/17 06:04:48;;;;;;;11.10;8.05;;;19.10;92.20;;;19.11;58.36;99918.00;5059726;28;20048;-77
2022/10/17 06:07:15;;;;;;;11.40;7.93;;;19.00;92.30;;;19.13;58.70;99925.94;5056090;28;20522;-77
2022/10/17 06:09:41;;;;;;;7.72;6.55;;;19.00;92.30;;;19.11;58.40;99929.00;5063343;28;20145;-78
2022/10/17 06:12:07;;;;;;;11.57;8.05;;;19.00;92.20;;;19.10;58.10;99924.63;5060480;28;20550;-77
2022/10/17 06:14:34;;;;;;;8.02;7.15;;;19.10;92.20;;;19.10;57.98;99924.63;5062810;28;20036;-78
2022/10/17 06:17:00;;;;;;;9.40;6.93;;;19.00;92.10;;;19.13;57.81;99928.69;5065392;28;20090;-77
2022/10/17 06:19:26;;;;;;;10.73;7.15;;;19.00;92.10;;;19.17;58.09;99929.72;5067264;28;20538;-77
2022/10/17 06:21:52;;;;;;;10.65;7.75;;;19.00;92.20;;;19.18;58.35;99937.66;5076446;28;20046;-77
2022/10/17 06:24:19;;;;;;;9.27;7.53;;;19.10;92.30;;;19.17;58.21;99938.78;5042314;28;20041;-77
2022/10/17 06:26:46;;;;;;;10.07;7.78;;;19.10;92.30;;;19.15;58.00;99935.53;5062604;28;20048;-77
2022/10/17 06:29:12;;;;;;;7.88;6.65;;;19.10;92.20;;;19.15;58.03;99937.47;5080617;28;20146;-77
2022/10/17 06:31:38;;;;;;;8.45;7.20;;;19.10;92.20;;;19.14;57.87;99935.84;5059666;28;20051;-77
2022/10/17 06:34:05;;;;;;;9.95;7.13;;;19.10;92.20;;;19.12;57.75;99943.56;5077041;28;20044;-77
2022/10/17 06:36:31;;;;;;;9.88;7.45;;;19.00;92.10;;;19.18;58.14;99945.91;5060286;28;20126;-77
2022/10/17 06:38:57;;;;;;;8.23;7.15;;;19.10;92.20;;;19.20;58.03;99948.38;5065368;28;20052;-78
2022/10/17 06:41:24;;;;;;;8.77;7.07;;;19.10;92.20;;;19.17;58.01;99947.03;5042749;28;20044;-77
2022/10/17 06:43:50;;;;;;;9.85;7.82;;;19.10;92.20;;;19.15;57.79;99948.47;5077115;28;20543;-78
2022/10/17 06:46:17;;;;;;;9.57;7.38;;;19.10;92.20;;;19.17;57.91;99949.78;5069069;28;20043;-78
2022/10/17 06:48:44;;;;;;;9.45;7.63;;;19.10;92.10;;;19.16;57.47;99952.84;5078921;28;20032;-78
2022/10/17 06:51:10;;;;;;;9.32;7.78;;;19.10;92.10;;;19.19;57.69;99947.56;5075315;28;20040;-77
2022/10/17 06:53:38;;;;;;;10.70;7.50;;;19.10;92.10;;;19.24;57.92;99952.16;5061745;28;20048;-78
2022/10/17 06:56:05;;;;;;;8.70;7.30;;;19.20;92.20;;;19.22;57.83;99952.44;5032517;28;20097;-78
2022/10/17 06:58:33;;;;;;;9.35;7.30;;;19.20;92.20;;;19.22;57.67;99952.44;5046950;28;20541;-78
2022/10/17 07:01:00;;;;;;;10.80;7.53;;;19.20;92.10;;;19.25;57.54;99957.34;5053015;28;20052;-78
2022/10/17 07:03:27;;;;;;;8.85;7.10;;;19.20;92.10;;;19.21;57.57;99961.81;5078585;28;20690;-78
2022/10/17 07:05:54;;;;;;;10.88;7.18;;;19.20;92.10;;;19.20;57.56;99962.94;5068520;28;20111;-78
2022/10/17 07:08:20;;;;;;;8.48;6.53;;;19.20;92.00;;;19.26;57.73;99964.50;5055909;28;20054;-78
2022/10/17 07:10:46;;;;;;;10.27;7.38;;;19.20;92.20;;;19.27;57.63;99971.59;5077193;28;20446;-78
2022/10/17 07:13:13;;;;;;;7.20;6.50;;;19.20;92.20;;;19.29;57.53;99971.31;5079902;28;20066;-78
2022/10/17 07:15:38;;;;;;;9.95;7.18;;;19.20;92.20;;;19.29;57.19;99971.31;5065539;28;20136;-78
2022/10/17 07:18:05;;;;;;;9.20;7.63;;;19.20;92.00;;;19.29;57.21;99966.63;5076455;28;20043;-78
2022/10/17 07:20:31;;;;;;;7.38;6.38;;;19.20;92.00;;;19.27;57.05;99963.34;5061091;28;20040;-78
2022/10/17 07:22:57;;;;;;;8.25;6.90;;;19.30;92.00;;;19.31;57.16;99969.09;5064351;28;20046;-78
2022/10/17 07:25:23;;;;;;;10.18;6.78;;;19.30;92.00;;;19.35;57.29;99969.28;5051742;28;20267;-78
2022/10/17 07:27:50;;;;;;;10.70;6.75;;;19.30;92.10;;;19.35;57.70;99972.03;5051704;28;20044;-78
2022/10/17 07:30:16;;;;;;;8.30;6.85;;;19.30;92.00;;;19.34;57.29;99973.16;5054750;28;20041;-78
2022/10/17 07:32:42;;;;;;;7.13;5.90;;;19.30;92.00;;;19.33;56.99;99966.81;5075275;28;20087;-78
2022/10/17 07:35:09;;;;;;;8.88;7.40;;;19.30;91.90;;;19.35;57.18;99969.28;5057627;28;20052;-78
2022/10/17 07:37:36;;;;;;;8.65;7.20;;;19.30;91.90;;;19.35;57.01;99969.28;5058306;28;20120;-78
2022/10/17 07:40:03;;;;;;;8.63;6.55;;;19.30;91.90;;;19.35;57.42;99972.84;5069322;28;20498;-78
2022/10/17 07:42:29;;;;;;;7.93;7.00;;;19.40;91.90;;;19.40;57.15;99969.19;5076319;28;20107;-78
2022/10/17 07:44:55;;;;;;;9.40;6.93;;;19.40;92.00;;;19.40;57.36;99964.50;5059627;28;20110;-78
2022/10/17 07:47:21;;;;;;;7.28;5.90;;;19.40;92.00;;;19.37;56.94;99967.06;5062662;28;20156;-78
2022/10/17 07:49:48;;;;;;;8.57;6.88;;;19.40;91.90;;;19.38;57.03;99969.47;5061227;28;20048;-78
2022/10/17 07:52:16;;;;;;;7.82;6.05;;;19.40;91.90;;;19.40;56.91;99966.44;5050380;28;20387;-78
2022/10/17 07:54:42;;;;;;;6.88;5.70;;;19.40;91.80;;;19.41;56.95;99974.41;5047250;28;20044;-78
2022/10/17 07:57:08;;;;;;;10.48;5.93;;;19.40;91.80;;;19.41;57.08;99973.56;5064743;28;20451;-78
2022/10/17 07:59:36;;;;;;;8.38;6.82;;;19.40;91.90;;;19.41;56.97;99974.41;5076685;28;20057;-78
2022/10/17 08:02:02;;;;;;;8.02;6.55;;;19.40;91.80;;;19.44;56.98;99982.03;5042371;28;20040;-78
2022/10/17 08:04:28;;;;;;;7.80;5.78;;;19.50;91.90;;;19.43;57.04;99979.56;5059408;28;20043;-78
2022/10/17 08:06:54;;;;;;;7.72;6.22;;;19.50;91.80;;;19.44;56.51;99982.03;5058589;28;20123;-78
2022/10/17 08:09:20;;;;;;;7.25;6.07;;;19.50;91.80;;;19.45;56.60;99980.09;5075802;28;20047;-78
2022/10/17 08:11:47;;;;;;;9.15;6.72;;;19.40;91.70;;;19.47;56.46;99973.16;5065715;28;20059;-78
2022/10/17 08:14:15;;;;;;;7.35;6.63;;;19.50;91.70;;;19.48;56.54;99980.28;5062339;28;20066;-78
2022/10/17 08:16:42;;;;;;;7.35;6.10;;;19.50;91.80;;;19.51;56.39;99974.22;5044215;28;20075;-78
2022/10/17 08:19:10;;;;;;;6.82;5.75;;;19.50;91.70;;;19.49;56.38;99981.94;5064362;28;20040;-78
2022/10/17 08:21:36;;;;;;;9.05;6.63;;;19.60;91.70;;;19.50;56.46;99985.50;5061681;28;20526;-78
2022/10/17 08:24:03;;;;;;;8.27;6.63;;;19.50;91.70;;;19.56;56.27;99988.97;5077960;28;20415;-78
2022/10/17 08:26:29;;;;;;;6.85;5.68;;;19.60;91.70;;;19.56;56.07;99978.78;5059329;28;20065;-78
2022/10/17 08:28:55;;;;;;;6.30;5.70;;;19.60;91.60;;;19.57;56.30;99969.41;5079862;28;20032;-78
2022/10/17 08:31:21;;;;;;;6.68;6.03;;;19.60;91.70;;;19.59;56.28;99972.69;5077213;28;20115;-78
2022/10/17 08:33:48;;;;;;;6.00;5.43;;;19.60;91.70;;;19.57;56.74;99980.41;5076518;28;20047;-78
2022/10/17 08:36:19;;;;;;;7.80;6.18;;;19.70;91.70;;;19.60;56.13;99976.25;5060106;28;20076;-78
2022/10/17 08:38:45;;;;;;;10.80;6.65;;;19.70;91.60;;;19.60;56.10;99973.50;5070246;28;20036;-78
2022/10/17 08:41:36;;;;;;;8.25;6.00;;;19.70;91.60;;;19.61;55.97;99983.38;5067938;28;20040;-78
2022/10/17 08:44:23;;;;;;;8.70;5.68;;;19.60;91.60;;;19.62;55.79;99974.81;5081145;28;20496;-78
2022/10/17 08:46:50;;;;;;;7.25;6.55;;;19.70;91.60;;;19.65;56.13;99976.94;5082381;28;20123;-78
2022/10/17 08:49:51;;;;;;;7.68;5.75;;;19.70;91.60;;;19.67;56.18;99979.44;5080917;28;20068;-78
2022/10/17 08:53:08;;;;;;;6.60;5.90;;;19.70;91.60;;;19.67;55.91;99988.50;5056626;28;20052;-78
2022/10/17 08:55:46;;;;;;;6.85;5.70;;;19.70;91.50;;;19.68;55.72;99984.63;5075946;28;20083;-78
2022/10/17 08:58:28;;;;;;;6.43;5.32;;;19.70;91.40;;;19.67;55.85;99985.75;5062607;28;20519;-78
2022/10/17 09:01:31;;;;;;;9.02;6.60;;;19.80;91.50;;;19.66;55.91;99984.06;5052193;28;20105;-78
2022/10/17 09:04:18;;;;;;;5.80;5.20;;;19.80;91.50;;;19.70;56.06;99982.38;5081460;28;20496;-78
2022/10/17 09:07:06;;;;;;;7.90;6.00;;;19.80;91.50;;;19.71;55.81;99975.75;5080308;28;20036;-78
2022/10/17 09:09:56;;;;;;;6.32;5.68;;;19.80;91.50;;;19.71;55.64;99975.75;5079759;28;20529;-77
2022/10/17 09:13:24;;;;;;;6.55;5.82;;;19.80;91.40;;;19.72;55.76;99968.34;5079153;28;20517;-78
2022/10/17 09:16:22;;;;;;;7.07;5.85;;;19.90;91.40;;;19.74;55.48;99968.81;5070053;28;20140;-78
2022/10/17 09:19:07;;;;;;;6.07;5.20;;;19.90;91.40;;;19.76;55.80;99974.03;5079566;28;20066;-78
2022/10/17 09:22:05;;;;;;;6.22;5.00;;;19.90;91.40;;;19.80;55.49;99973.13;5066022;28;20041;-78
2022/10/17 09:24:49;;;;;;;7.72;5.93;;;19.90;91.40;;;19.79;55.53;99974.22;5078102;28;20055;-78
2022/10/17 09:27:44;;;;;;;6.53;5.82;;;19.90;91.70;;;19.80;55.38;99972.31;5064900;28;20055;-77
2022/10/17 09:30:32;;;;;;;6.95;5.88;;;19.90;91.30;;;19.84;55.32;99974.13;5097446;28;20045;-78
2022/10/17 09:32:58;;;;;;;6.47;5.65;;;20.00;91.30;;;19.83;55.19;99975.25;5082991;28;20092;-78
2022/10/17 09:35:24;;;;;;;9.38;5.97;;;20.00;91.30;;;19.84;55.42;99976.88;5064501;28;20044;-78
2022/10/17 09:37:50;;;;;;;7.80;5.05;;;20.00;91.30;;;19.85;55.31;99978.50;5046604;28;20170;-78
2022/10/17 09:40:26;;;;;;;6.20;5.60;;;20.00;91.30;;;19.86;55.11;99977.38;5060057;28;20052;-77
2022/10/17 09:42:52;;;;;;;5.40;4.90;;;20.00;91.30;;;19.86;54.97;99979.31;5066791;28;20459;-77
2022/10/17 09:45:23;;;;;;;7.45;5.55;;;20.00;91.20;;;19.85;55.19;99980.47;5079944;28;20040;-77
2022/10/17 09:48:09;;;;;;;6.82;5.25;;;20.00;91.20;;;19.89;55.09;99984.22;5060892;28;20337;-77
2022/10/17 09:50:36;;;;;;;7.18;5.70;;;20.00;91.20;;;19.89;55.18;99978.69;5068603;28;20064;-78
2022/10/17 09:53:32;;;;;;;7.28;4.47;;;20.00;91.20;;;19.88;54.91;99974.34;5060066;28;20048;-78
2022/10/17 09:56:01;;;;;;;5.32;4.82;;;20.10;91.20;;;19.92;55.08;99980.84;5057862;28;20141;-78
2022/10/17 09:58:49;;;;;;;5.25;4.72;;;20.00;91.20;;;19.93;55.07;99976.97;5064306;28;20180;-78
2022/10/17 10:01:29;;;;;;;5.60;4.60;;;20.10;91.10;;;19.95;54.72;99977.50;5036027;28;20054;-78
2022/10/17 10:04:16;;;;;;;6.47;4.83;;;20.10;91.10;;;19.95;54.83;99977.50;5059883;28;20114;-78
2022/10/17 10:07:04;;;;;;;6.88;5.03;;;20.20;91.20;;;19.95;54.83;99980.25;5078593;28;20070;-77
2022/10/17 10:09:32;;;;;;;5.40;4.80;;;20.10;91.10;;;19.95;54.96;99975.56;5057442;28;20039;-77
2022/10/17 10:12:02;;;;;;;5.47;4.65;;;20.10;91.10;;;19.95;55.01;99972.00;5060858;28;20055;-77
2022/10/17 10:14:32;;;;;;;5.68;4.65;;;20.10;91.20;;;19.97;54.85;99974.41;5057927;28;20491;-78
2022/10/17 10:17:00;;;;;;;5.78;5.18;;;20.20;91.20;;;19.98;54.74;99965.06;5078312;28;20051;-78
2022/10/17 10:19:34;;;;;;;6.75;5.00;;;20.20;91.10;;;20.00;54.81;99974.63;5060980;28;20553;-78
2022/10/17 10:22:05;;;;;;;4.10;3.72;;;20.20;91.10;;;20.00;54.76;99969.13;5064514;28;20075;-78
2022/10/17 10:24:32;;;;;;;5.10;4.50;;;20.20;91.10;;;20.01;54.88;99972.69;5049117;28;20032;-78
2022/10/17 10:27:00;;;;;;;5.20;4.53;;;20.20;91.10;;;20.00;55.03;99963.63;5078810;28;20032;-78
2022/10/17 10:29:41;;;;;;;4.95;4.28;;;20.20;91.20;;;20.00;54.86;99963.63;5066655;28;20083;-78
2022/10/17 10:32:15;;;;;;;6.50;4.40;;;20.20;91.10;;;20.03;54.97;99960.25;5066928;28;20063;-78